This is the latest recevied weather packets stored in our database for station/object OE2ATN. If no packets are shown the sender has not sent any weather packets the latest 10 day(s).
| Time | Temp. | Humidity | Pressure | Rain* | Wind** | Luminosity | Snow |
|---|---|---|---|---|---|---|---|
| 1777919075 | 18.89° C | 40% | 1019.3 hPa | 0 mm | - | - | - |
| 1777918774 | 18.89° C | 40% | 1019.3 hPa | 0 mm | - | - | - |
| 1777918474 | 18.89° C | 39% | 1019.3 hPa | 0 mm | - | - | - |
| 1777918175 | 19.44° C | 39% | 1019.3 hPa | 0 mm | - | - | - |
| 1777917875 | 20° C | 38% | 1019.3 hPa | 0 mm | - | - | - |
| 1777917574 | 21.11° C | 33% | 1019.2 hPa | 0 mm | - | - | - |
| 1777917273 | 20.56° C | 31% | 1019.1 hPa | 0 mm | - | - | - |
| 1777916973 | 20.56° C | 34% | 1019.1 hPa | 0 mm | - | - | - |
| 1777916673 | 20° C | 38% | 1019.1 hPa | 0 mm | - | - | - |
| 1777916374 | 20.56° C | 38% | 1019.1 hPa | 0 mm | - | - | - |
| 1777916074 | 20.56° C | 36% | 1018.9 hPa | 0 mm | - | - | - |
| 1777915774 | 21.67° C | 33% | 1019.1 hPa | 0 mm | - | - | - |
| 1777915472 | 21.67° C | 30% | 1019 hPa | 0 mm | - | - | - |
| 1777915173 | 21.67° C | 31% | 1019 hPa | 0 mm | - | - | - |
| 1777914872 | 21.67° C | 31% | 1019 hPa | 0 mm | - | - | - |
| 1777914573 | 22.22° C | 29% | 1019 hPa | 0 mm | - | - | - |
| 1777914272 | 22.22° C | 28% | 1019 hPa | 0 mm | - | - | - |
| 1777913973 | 22.22° C | 28% | 1018.9 hPa | 0 mm | - | - | - |
| 1777913673 | 22.22° C | 28% | 1018.9 hPa | 0 mm | - | - | - |
| 1777913373 | 22.22° C | 29% | 1018.9 hPa | 0 mm | - | - | - |
| 1777913072 | 22.22° C | 27% | 1018.9 hPa | 0 mm | - | - | - |
| 1777912772 | 22.22° C | 28% | 1018.9 hPa | 0 mm | - | - | - |
| 1777912471 | 22.22° C | 28% | 1018.9 hPa | 0 mm | - | - | - |
| 1777912172 | 22.78° C | 28% | 1018.9 hPa | 0 mm | - | - | - |
| 1777911871 | 22.78° C | 27% | 1018.9 hPa | 0 mm | - | - | - |
* Rain latest hour (hover to see other rain measurements)
** Current wind speed in m/s (hover to see current wind gust speed)